createdAt,value
2023-01-10T00:00:40.708Z,31.85
2023-01-10T00:01:44.184Z,36.95
2023-01-10T00:02:53.119Z,33.50
2023-01-10T00:03:56.623Z,33.97
2023-01-10T00:05:00.194Z,33.65
2023-01-10T00:06:02.740Z,32.08
2023-01-10T00:07:06.193Z,28.95
2023-01-10T00:08:16.060Z,31.45
2023-01-10T00:09:19.510Z,32.38
2023-01-10T00:10:22.003Z,31.13
2023-01-10T00:11:43.038Z,30.30
2023-01-10T00:13:07.548Z,34.20
2023-01-10T00:14:19.081Z,34.25
2023-01-10T00:15:22.529Z,29.83
2023-01-10T00:16:25.171Z,32.05
2023-01-10T00:17:28.711Z,33.85
2023-01-10T00:18:31.302Z,31.30
2023-01-10T00:19:41.027Z,33.30
2023-01-10T00:20:51.304Z,29.55
2023-01-10T00:21:54.476Z,30.73
2023-01-10T00:22:58.235Z,32.35
2023-01-10T00:24:13.716Z,30.73
2023-01-10T00:25:26.010Z,34.42
2023-01-10T00:26:28.503Z,32.05
2023-01-10T00:27:31.985Z,32.67
2023-01-10T00:28:36.083Z,27.15
2023-01-10T00:29:40.483Z,30.85
2023-01-10T00:30:49.111Z,29.55
2023-01-10T00:31:52.588Z,28.08
2023-01-10T00:32:56.900Z,30.35
2023-01-10T00:33:59.403Z,29.90
2023-01-10T00:35:05.450Z,28.80
2023-01-10T00:36:15.097Z,28.05
2023-01-10T00:37:18.570Z,26.60
2023-01-10T00:38:21.103Z,26.80
2023-01-10T00:39:27.644Z,27.83
2023-01-10T00:40:30.157Z,28.08
2023-01-10T00:41:58.051Z,27.45
2023-01-10T00:43:19.466Z,26.80
2023-01-10T00:44:24.387Z,23.27
2023-01-10T00:45:27.624Z,20.77
2023-01-10T00:46:31.080Z,23.33
2023-01-10T00:47:40.068Z,24.77
2023-01-10T00:48:43.591Z,25.08
2023-01-10T00:49:46.218Z,27.08
2023-01-10T00:50:49.622Z,24.00
2023-01-10T00:51:59.032Z,27.88
2023-01-10T00:53:02.539Z,24.13
2023-01-10T00:54:13.006Z,23.88
2023-01-10T00:55:16.403Z,27.92
2023-01-10T00:56:18.942Z,24.75
2023-01-10T00:57:22.367Z,23.80
2023-01-10T00:58:32.035Z,26.85
2023-01-10T00:59:36.824Z,27.60
2023-01-10T01:00:39.425Z,27.70
2023-01-10T01:01:49.107Z,27.08
2023-01-10T01:02:51.820Z,24.63
2023-01-10T01:03:55.460Z,26.52
2023-01-10T01:05:00.358Z,24.23
2023-01-10T01:06:13.061Z,25.38
2023-01-10T01:07:15.549Z,25.67
2023-01-10T01:08:19.692Z,24.65
2023-01-10T01:09:22.296Z,24.55
2023-01-10T01:10:28.504Z,25.30
2023-01-10T01:11:38.067Z,24.05
2023-01-10T01:12:40.624Z,22.92
2023-01-10T01:13:44.169Z,24.88
2023-01-10T01:14:49.038Z,24.98
2023-01-10T01:15:52.477Z,24.38
2023-01-10T01:17:02.010Z,19.45
2023-01-10T01:18:06.135Z,18.33
2023-01-10T01:19:08.693Z,18.85
2023-01-10T01:20:20.162Z,18.27
2023-01-10T01:21:36.038Z,20.30
2023-01-10T01:22:46.010Z,17.05
2023-01-10T01:23:48.689Z,21.40
2023-01-10T01:24:52.177Z,21.77
2023-01-10T01:25:55.049Z,20.92
2023-01-10T01:26:58.471Z,19.08
2023-01-10T01:28:08.030Z,21.05
2023-01-10T01:29:11.532Z,19.08
2023-01-10T01:30:15.879Z,21.33
2023-01-10T01:31:19.719Z,20.25
2023-01-10T01:32:22.458Z,19.15
2023-01-10T01:33:33.085Z,14.80
2023-01-10T01:34:36.600Z,17.60
2023-01-10T01:35:39.149Z,17.08
2023-01-10T01:36:42.567Z,17.88
2023-01-10T01:37:45.878Z,15.93
2023-01-10T01:38:56.658Z,18.90
2023-01-10T01:39:59.229Z,15.10
2023-01-10T01:41:02.660Z,15.77
2023-01-10T01:42:05.633Z,15.57
2023-01-10T01:43:21.352Z,17.98
2023-01-10T01:44:31.043Z,18.73
2023-01-10T01:45:44.082Z,17.98
2023-01-10T01:46:48.732Z,16.90
2023-01-10T01:47:53.111Z,16.65
2023-01-10T01:48:56.524Z,16.30
2023-01-10T01:50:06.031Z,17.08
2023-01-10T01:51:11.024Z,15.55
2023-01-10T01:52:18.672Z,18.45
2023-01-10T01:53:24.281Z,17.83
2023-01-10T01:54:28.717Z,21.55
2023-01-10T01:55:39.034Z,22.25
2023-01-10T01:56:44.594Z,17.90
2023-01-10T01:57:47.933Z,23.33
2023-01-10T01:58:53.591Z,19.27
2023-01-10T01:59:56.898Z,18.17
2023-01-10T02:01:08.128Z,17.88
2023-01-10T02:02:13.902Z,20.88
2023-01-10T02:03:23.348Z,19.75
2023-01-10T02:04:29.246Z,17.75
2023-01-10T02:05:33.223Z,17.33
2023-01-10T02:06:43.067Z,16.73
2023-01-10T02:07:47.086Z,22.30
2023-01-10T02:08:52.907Z,17.45
2023-01-10T02:09:56.926Z,18.15
2023-01-10T02:11:05.986Z,22.35
2023-01-10T02:12:15.044Z,16.92
2023-01-10T02:13:20.105Z,18.38
2023-01-10T02:14:23.924Z,19.27
2023-01-10T02:15:27.505Z,17.23
2023-01-10T02:16:38.054Z,17.25
2023-01-10T02:17:48.055Z,16.92
2023-01-10T02:18:50.675Z,18.45
2023-01-10T02:19:55.811Z,15.68
2023-01-10T02:21:31.034Z,20.10
2023-01-10T02:22:59.099Z,15.55
2023-01-10T02:24:28.559Z,16.35
2023-01-10T02:25:44.388Z,17.42
2023-01-10T02:26:59.125Z,21.23
2023-01-10T02:28:29.070Z,16.23
2023-01-10T02:29:49.966Z,18.67
2023-01-10T02:31:14.078Z,17.88
2023-01-10T02:32:35.518Z,19.98
2023-01-10T02:33:56.108Z,19.98
2023-01-10T02:35:04.914Z,18.40
2023-01-10T02:36:16.879Z,20.33
2023-01-10T02:37:21.135Z,18.27
2023-01-10T02:38:29.940Z,23.08
2023-01-10T02:39:43.021Z,19.75
2023-01-10T02:40:56.326Z,19.75
2023-01-10T02:42:01.544Z,27.92
2023-01-10T02:43:07.124Z,18.65
2023-01-10T02:44:12.672Z,18.35
2023-01-10T02:45:25.071Z,19.83
2023-01-10T02:46:30.380Z,19.52
2023-01-10T02:47:37.902Z,21.92
2023-01-10T02:48:41.351Z,17.02
2023-01-10T02:49:44.267Z,20.08
2023-01-10T02:51:02.055Z,24.33
2023-01-10T02:52:05.672Z,21.13
2023-01-10T02:53:11.751Z,25.38
2023-01-10T02:54:18.722Z,44.55
2023-01-10T02:55:29.056Z,23.95
2023-01-10T02:56:47.293Z,20.73
2023-01-10T02:57:54.091Z,22.27
2023-01-10T02:59:08.303Z,26.00
2023-01-10T03:00:26.065Z,21.13
2023-01-10T03:01:35.447Z,19.40
2023-01-10T03:02:54.061Z,48.00
2023-01-10T03:04:03.475Z,47.25
2023-01-10T03:05:18.068Z,129.38
2023-01-10T03:06:25.181Z,16.75
2023-01-10T03:07:32.922Z,64.07
2023-01-10T03:08:38.779Z,53.20
2023-01-10T03:09:53.077Z,27.55
2023-01-10T03:10:58.515Z,36.67
2023-01-10T03:12:05.390Z,22.80
2023-01-10T03:13:17.057Z,25.27
2023-01-10T03:14:22.574Z,22.40
2023-01-10T03:15:28.408Z,26.52
2023-01-10T03:16:40.063Z,21.42
2023-01-10T03:17:50.058Z,25.85
2023-01-10T03:18:55.870Z,25.42
2023-01-10T03:20:01.481Z,26.38
2023-01-10T03:21:26.082Z,26.27
2023-01-10T03:22:38.059Z,27.75
2023-01-10T03:23:42.704Z,22.25
2023-01-10T03:24:54.068Z,30.13
2023-01-10T03:25:57.864Z,29.40
2023-01-10T03:27:10.060Z,31.30
2023-01-10T03:28:16.251Z,26.38
2023-01-10T03:29:27.041Z,30.42
2023-01-10T03:30:32.518Z,25.30
2023-01-10T03:31:39.003Z,28.80
2023-01-10T03:32:50.066Z,26.73
2023-01-10T03:34:02.124Z,29.05
2023-01-10T03:35:05.915Z,34.85
2023-01-10T03:36:16.858Z,39.28
2023-01-10T03:37:25.017Z,31.27
2023-01-10T03:38:32.741Z,34.92
2023-01-10T03:39:48.072Z,34.22
2023-01-10T03:40:56.155Z,31.10
2023-01-10T03:42:04.333Z,32.10
2023-01-10T03:43:29.473Z,30.85
2023-01-10T03:44:53.078Z,34.20
2023-01-10T03:45:58.362Z,32.95
2023-01-10T03:47:05.131Z,37.67
2023-01-10T03:48:09.454Z,31.10
2023-01-10T03:49:14.220Z,32.42
2023-01-10T03:50:27.077Z,35.22
2023-01-10T03:51:30.254Z,34.22
2023-01-10T03:52:41.070Z,34.03
2023-01-10T03:53:44.081Z,39.50
2023-01-10T03:54:48.727Z,37.38
2023-01-10T03:55:51.247Z,37.15
2023-01-10T03:57:02.860Z,38.08
2023-01-10T03:58:12.048Z,33.08
2023-01-10T03:59:15.509Z,41.60
2023-01-10T04:00:22.054Z,34.05
2023-01-10T04:01:24.652Z,35.65
2023-01-10T04:02:28.912Z,33.72
2023-01-10T04:03:38.119Z,39.17
2023-01-10T04:04:42.843Z,36.78
2023-01-10T04:05:53.053Z,39.95
2023-01-10T04:06:55.696Z,38.03
2023-01-10T04:07:59.339Z,41.13
2023-01-10T04:09:01.846Z,41.33
2023-01-10T04:10:05.559Z,37.13
2023-01-10T04:11:15.069Z,38.10
2023-01-10T04:12:18.706Z,37.30
2023-01-10T04:13:28.071Z,56.10
2023-01-10T04:14:32.791Z,40.47
2023-01-10T04:15:35.359Z,43.33
2023-01-10T04:16:38.797Z,39.10
2023-01-10T04:17:48.084Z,42.03
2023-01-10T04:18:51.556Z,58.40
2023-01-10T04:19:55.420Z,81.32
2023-01-10T04:21:05.242Z,71.40
2023-01-10T04:22:21.052Z,96.10
2023-01-10T04:23:31.108Z,110.45
2023-01-10T04:24:33.646Z,88.10
2023-01-10T04:25:37.092Z,92.25
2023-01-10T04:26:39.564Z,83.22
2023-01-10T04:27:43.039Z,64.55
2023-01-10T04:28:52.071Z,76.47
2023-01-10T04:29:55.531Z,60.47
2023-01-10T04:30:58.091Z,65.45
2023-01-10T04:32:01.903Z,63.42
2023-01-10T04:33:04.484Z,45.65
2023-01-10T04:34:14.066Z,43.90
2023-01-10T04:35:17.929Z,40.45
2023-01-10T04:36:21.409Z,41.53
2023-01-10T04:37:24.052Z,42.58
2023-01-10T04:38:34.054Z,38.92
2023-01-10T04:39:44.127Z,43.13
2023-01-10T04:40:53.164Z,33.85
2023-01-10T04:41:56.619Z,38.63
2023-01-10T04:42:59.112Z,40.42
2023-01-10T04:44:02.698Z,71.13
2023-01-10T04:45:12.097Z,75.80
2023-01-10T04:46:15.521Z,103.82
2023-01-10T04:47:19.153Z,107.25
2023-01-10T04:48:21.729Z,76.35
2023-01-10T04:49:32.115Z,85.22
2023-01-10T04:50:36.006Z,107.78
2023-01-10T04:51:39.628Z,62.97
2023-01-10T04:52:43.494Z,68.95
2023-01-10T04:53:46.928Z,75.75
2023-01-10T04:54:56.055Z,76.15
2023-01-10T04:56:04.144Z,65.63
2023-01-10T04:57:14.102Z,79.35
2023-01-10T04:58:16.640Z,75.97
2023-01-10T04:59:20.106Z,76.40
2023-01-10T05:00:29.132Z,54.15
2023-01-10T05:01:39.380Z,57.78
2023-01-10T05:02:44.552Z,65.95
2023-01-10T05:03:49.103Z,42.42
2023-01-10T05:04:51.657Z,53.38
2023-01-10T05:05:56.395Z,52.92
2023-01-10T05:07:05.093Z,65.57
2023-01-10T05:08:08.658Z,49.45
2023-01-10T05:09:11.303Z,56.28
2023-01-10T05:10:15.161Z,45.72
2023-01-10T05:11:17.677Z,55.45
2023-01-10T05:12:28.136Z,42.17
2023-01-10T05:13:30.731Z,51.22
2023-01-10T05:14:34.203Z,36.78
2023-01-10T05:15:36.703Z,45.53
2023-01-10T05:16:40.221Z,40.53
2023-01-10T05:17:49.121Z,43.08
2023-01-10T05:18:52.845Z,47.28
2023-01-10T05:19:55.335Z,41.90
2023-01-10T05:21:09.222Z,46.47
2023-01-10T05:22:19.357Z,51.03
2023-01-10T05:23:28.066Z,45.58
2023-01-10T05:24:31.488Z,36.58
2023-01-10T05:25:34.092Z,43.08
2023-01-10T05:26:37.565Z,48.38
2023-01-10T05:27:42.372Z,53.83
2023-01-10T05:28:53.098Z,43.83
2023-01-10T05:29:55.707Z,49.63
2023-01-10T05:30:59.271Z,44.20
2023-01-10T05:32:02.148Z,46.35
2023-01-10T05:33:12.068Z,45.05
2023-01-10T05:34:21.095Z,46.88
2023-01-10T05:35:24.640Z,43.20
2023-01-10T05:36:35.068Z,44.60
2023-01-10T05:37:45.075Z,38.88
2023-01-10T05:38:48.640Z,52.78
2023-01-10T05:39:51.141Z,55.80
2023-01-10T05:41:04.084Z,49.25
2023-01-10T05:42:07.561Z,54.13
2023-01-10T05:43:12.074Z,54.22
2023-01-10T05:44:15.519Z,53.42
2023-01-10T05:45:18.117Z,57.53
2023-01-10T05:46:28.087Z,50.67
2023-01-10T05:47:30.623Z,49.35
2023-01-10T05:48:41.091Z,55.90
2023-01-10T05:49:43.659Z,55.60
2023-01-10T05:50:47.225Z,55.45
2023-01-10T05:51:51.103Z,57.30
2023-01-10T05:53:01.152Z,51.58
2023-01-10T05:54:03.830Z,49.42
2023-01-10T05:55:07.542Z,47.20
2023-01-10T05:56:10.695Z,60.55
2023-01-10T05:57:14.252Z,52.35
2023-01-10T05:58:23.115Z,55.13
2023-01-10T05:59:28.467Z,55.17
2023-01-10T06:00:31.216Z,47.17
2023-01-10T06:01:34.701Z,50.38
2023-01-10T06:02:37.354Z,54.05
2023-01-10T06:03:47.128Z,64.28
2023-01-10T06:04:49.732Z,61.83
2023-01-10T06:05:53.134Z,53.88
2023-01-10T06:06:57.131Z,66.07
2023-01-10T06:08:00.595Z,69.85
2023-01-10T06:09:10.083Z,61.13
2023-01-10T06:10:13.562Z,70.72
2023-01-10T06:11:16.080Z,73.05
2023-01-10T06:12:19.805Z,96.32
2023-01-10T06:13:22.495Z,78.32
2023-01-10T06:14:32.085Z,71.00
2023-01-10T06:15:34.635Z,73.13
2023-01-10T06:16:38.122Z,64.80
2023-01-10T06:17:40.751Z,79.72
2023-01-10T06:18:51.118Z,65.22
2023-01-10T06:19:53.610Z,61.45
2023-01-10T06:21:03.117Z,75.40
2023-01-10T06:22:13.606Z,119.03
2023-01-10T06:23:30.083Z,83.80
2023-01-10T06:24:32.658Z,155.52
2023-01-10T06:25:47.095Z,161.18
2023-01-10T06:26:49.646Z,81.35
2023-01-10T06:27:53.188Z,116.00
2023-01-10T06:28:55.870Z,87.25
2023-01-10T06:30:01.435Z,156.68
2023-01-10T06:31:10.181Z,128.95
2023-01-10T06:32:13.743Z,115.15
2023-01-10T06:33:16.264Z,103.55
2023-01-10T06:34:19.690Z,96.88
2023-01-10T06:35:22.191Z,81.68
2023-01-10T06:36:32.115Z,72.03
2023-01-10T06:37:35.967Z,78.45
2023-01-10T06:38:39.555Z,98.70
2023-01-10T06:39:42.138Z,43.38
2023-01-10T06:40:46.191Z,49.38
2023-01-10T06:41:55.192Z,61.03
2023-01-10T06:42:59.254Z,71.75
2023-01-10T06:44:02.694Z,51.22
2023-01-10T06:45:05.577Z,54.95
2023-01-10T06:46:10.215Z,46.35
2023-01-10T06:47:20.104Z,43.78
2023-01-10T06:48:22.606Z,35.50
2023-01-10T06:49:28.272Z,39.75
2023-01-10T06:50:31.951Z,35.25
2023-01-10T06:51:35.496Z,36.47
2023-01-10T06:52:46.107Z,36.08
2023-01-10T06:53:49.748Z,37.80
2023-01-10T06:54:53.292Z,38.03
2023-01-10T06:55:57.504Z,34.15
2023-01-10T06:57:00.049Z,37.63
2023-01-10T06:58:11.169Z,36.00
2023-01-10T06:59:13.817Z,40.45
2023-01-10T07:00:17.538Z,40.22
2023-01-10T07:01:22.030Z,37.47
2023-01-10T07:02:24.756Z,37.55
2023-01-10T07:03:35.163Z,41.88
2023-01-10T07:04:38.741Z,36.95
2023-01-10T07:05:42.153Z,36.88
2023-01-10T07:06:45.675Z,30.52
2023-01-10T07:07:49.525Z,30.92
2023-01-10T07:08:59.132Z,33.00
2023-01-10T07:10:03.504Z,33.83
2023-01-10T07:11:06.341Z,65.00
2023-01-10T07:12:09.773Z,44.15
2023-01-10T07:13:13.280Z,30.48
2023-01-10T07:14:23.135Z,42.15
2023-01-10T07:15:26.883Z,44.05
2023-01-10T07:16:29.655Z,38.83
2023-01-10T07:17:33.122Z,41.10
2023-01-10T07:18:36.056Z,44.63
2023-01-10T07:19:46.164Z,163.50
2023-01-10T07:20:49.600Z,65.78
2023-01-10T07:22:01.271Z,169.80
2023-01-10T07:23:12.675Z,84.45
2023-01-10T07:24:15.293Z,148.60
2023-01-10T07:25:25.166Z,41.53
2023-01-10T07:26:29.973Z,52.30
2023-01-10T07:27:32.656Z,68.10
2023-01-10T07:28:36.276Z,164.63
2023-01-10T07:29:38.796Z,71.68
2023-01-10T07:30:49.120Z,38.10
2023-01-10T07:31:53.260Z,40.05
2023-01-10T07:32:56.106Z,40.72
2023-01-10T07:34:06.091Z,34.47
2023-01-10T07:35:09.866Z,75.72
2023-01-10T07:36:12.478Z,51.60
2023-01-10T07:37:15.963Z,41.38
2023-01-10T07:38:19.788Z,51.10
2023-01-10T07:39:30.097Z,35.88
2023-01-10T07:40:32.610Z,34.83
2023-01-10T07:41:43.204Z,39.53
2023-01-10T07:42:45.746Z,33.88
2023-01-10T07:43:56.140Z,39.50
2023-01-10T07:44:59.546Z,64.95
2023-01-10T07:46:04.588Z,195.35
2023-01-10T07:47:08.121Z,48.63
2023-01-10T07:48:10.631Z,42.00
2023-01-10T07:49:21.136Z,44.55
2023-01-10T07:50:23.943Z,35.92
2023-01-10T07:51:27.416Z,80.38
2023-01-10T07:52:30.883Z,47.45
2023-01-10T07:53:41.080Z,47.95
2023-01-10T07:54:44.493Z,57.97
2023-01-10T07:55:47.038Z,121.97
2023-01-10T07:56:50.584Z,60.63
2023-01-10T07:57:53.204Z,42.53
2023-01-10T07:59:03.101Z,44.03
2023-01-10T08:00:05.894Z,49.15
2023-01-10T08:01:16.210Z,50.17
2023-01-10T08:02:18.722Z,46.75
2023-01-10T08:03:24.923Z,59.90
2023-01-10T08:04:28.473Z,53.30
2023-01-10T08:05:31.093Z,84.15
2023-01-10T08:06:41.145Z,103.45
2023-01-10T08:07:50.162Z,49.47
2023-01-10T08:08:55.027Z,54.15
2023-01-10T08:09:57.529Z,67.60
2023-01-10T08:11:02.677Z,71.78
2023-01-10T08:12:05.331Z,70.65
2023-01-10T08:13:19.014Z,52.30
2023-01-10T08:14:22.770Z,72.90
2023-01-10T08:15:25.440Z,48.10
2023-01-10T08:16:28.904Z,50.25
2023-01-10T08:17:33.493Z,43.90
2023-01-10T08:18:45.139Z,49.80
2023-01-10T08:19:48.632Z,46.95
2023-01-10T08:20:51.884Z,47.83
2023-01-10T08:22:03.369Z,51.30
2023-01-10T08:23:13.321Z,44.72
2023-01-10T08:24:25.113Z,45.42
2023-01-10T08:25:27.999Z,46.30
2023-01-10T08:26:31.506Z,41.88
2023-01-10T08:27:34.001Z,45.97
2023-01-10T08:28:44.139Z,43.80
2023-01-10T08:29:47.599Z,39.45
2023-01-10T08:30:55.529Z,46.88
2023-01-10T08:31:59.263Z,47.78
2023-01-10T08:33:02.650Z,51.58
2023-01-10T08:34:13.233Z,44.30
2023-01-10T08:35:17.104Z,52.63
2023-01-10T08:36:22.188Z,61.45
2023-01-10T08:37:25.882Z,59.42
2023-01-10T08:38:30.093Z,69.65
2023-01-10T08:39:42.133Z,72.80
2023-01-10T08:40:52.132Z,68.30
2023-01-10T08:41:55.829Z,68.78
2023-01-10T08:43:00.664Z,73.43
2023-01-10T08:44:11.090Z,111.68
2023-01-10T08:45:15.088Z,116.65
2023-01-10T08:46:26.269Z,100.68
2023-01-10T08:47:30.377Z,102.15
2023-01-10T08:48:33.723Z,111.32
2023-01-10T08:49:36.163Z,83.47
2023-01-10T08:50:39.513Z,89.15
2023-01-10T08:51:49.170Z,112.70
2023-01-10T08:52:52.692Z,105.05
2023-01-10T08:53:56.066Z,96.78
2023-01-10T08:54:59.776Z,94.63
2023-01-10T08:56:05.558Z,86.15
2023-01-10T08:57:16.241Z,61.65
2023-01-10T08:58:19.932Z,50.55
2023-01-10T08:59:23.577Z,53.38
2023-01-10T09:00:26.276Z,55.42
2023-01-10T09:01:30.049Z,50.80
2023-01-10T09:02:40.248Z,52.05
2023-01-10T09:03:44.008Z,53.97
2023-01-10T09:04:47.374Z,50.85
2023-01-10T09:05:49.829Z,57.50
2023-01-10T09:07:00.097Z,51.05
2023-01-10T09:08:04.159Z,57.97
2023-01-10T09:09:06.598Z,54.42
2023-01-10T09:10:12.067Z,58.28
2023-01-10T09:11:15.532Z,53.10
2023-01-10T09:12:43.125Z,56.45
2023-01-10T09:13:46.525Z,61.80
2023-01-10T09:14:49.237Z,64.38
2023-01-10T09:15:53.237Z,73.85
2023-01-10T09:17:03.077Z,65.25
2023-01-10T09:18:13.126Z,72.20
2023-01-10T09:19:16.535Z,63.40
2023-01-10T09:20:19.052Z,63.47
2023-01-10T09:21:29.390Z,67.28
2023-01-10T09:22:45.109Z,59.38
2023-01-10T09:23:55.100Z,55.08
2023-01-10T09:24:58.808Z,62.78
2023-01-10T09:26:03.608Z,55.83
2023-01-10T09:27:07.194Z,58.67
2023-01-10T09:28:10.721Z,62.20
2023-01-10T09:29:21.127Z,64.38
2023-01-10T09:30:24.718Z,64.80
2023-01-10T09:31:28.091Z,67.70
2023-01-10T09:32:30.608Z,70.15
2023-01-10T09:33:45.880Z,61.72
2023-01-10T09:34:57.225Z,60.33
2023-01-10T09:36:00.633Z,60.85
2023-01-10T09:37:04.194Z,59.15
2023-01-10T09:38:07.859Z,60.38
2023-01-10T09:39:11.265Z,57.85
2023-01-10T09:40:23.160Z,62.30
2023-01-10T09:41:35.699Z,59.50
2023-01-10T09:42:45.560Z,60.53
2023-01-10T09:43:53.401Z,56.58
2023-01-10T09:45:02.005Z,51.25
2023-01-10T09:46:14.203Z,52.67
2023-01-10T09:47:22.937Z,41.88
2023-01-10T09:48:28.999Z,45.58
2023-01-10T09:49:40.549Z,42.85
2023-01-10T09:50:58.112Z,47.95
2023-01-10T09:52:08.659Z,37.35
2023-01-10T09:53:14.379Z,42.72
2023-01-10T09:54:19.852Z,40.90
2023-01-10T09:55:25.899Z,39.03
2023-01-10T09:56:38.183Z,44.00
2023-01-10T09:57:40.700Z,40.58
2023-01-10T09:58:44.615Z,37.85
2023-01-10T09:59:51.035Z,44.08
2023-01-10T10:00:57.623Z,38.42
2023-01-10T10:02:09.163Z,40.22
2023-01-10T10:03:19.361Z,37.78
2023-01-10T10:04:25.852Z,35.35
2023-01-10T10:05:29.829Z,40.33
2023-01-10T10:06:34.555Z,38.15
2023-01-10T10:07:44.130Z,38.22
2023-01-10T10:08:48.689Z,38.70
2023-01-10T10:09:52.120Z,43.88
2023-01-10T10:11:19.121Z,43.05
2023-01-10T10:12:35.143Z,39.42
2023-01-10T10:13:44.407Z,36.33
2023-01-10T10:14:54.721Z,40.40
2023-01-10T10:16:04.355Z,36.08
2023-01-10T10:17:19.114Z,38.63
2023-01-10T10:18:34.143Z,37.95
2023-01-10T10:19:44.891Z,42.42
2023-01-10T10:20:55.947Z,40.45
2023-01-10T10:22:10.173Z,40.25
2023-01-10T10:23:34.641Z,35.88
2023-01-10T10:24:45.637Z,37.85
2023-01-10T10:26:01.152Z,43.88
2023-01-10T10:27:09.384Z,39.10
2023-01-10T10:28:53.677Z,39.80
2023-01-10T10:30:06.252Z,47.95
2023-01-10T10:31:15.522Z,47.03
2023-01-10T10:32:25.875Z,41.83
2023-01-10T10:33:53.290Z,36.67
2023-01-10T10:34:59.711Z,32.70
2023-01-10T10:36:12.135Z,36.92
2023-01-10T10:37:18.467Z,38.35
2023-01-10T10:38:24.879Z,34.75
2023-01-10T10:39:33.361Z,36.03
2023-01-10T10:40:46.133Z,34.00
2023-01-10T10:41:52.637Z,34.90
2023-01-10T10:43:04.280Z,36.70
2023-01-10T10:44:21.939Z,45.78
2023-01-10T10:45:39.861Z,39.45
2023-01-10T10:46:44.892Z,36.47
2023-01-10T10:47:59.150Z,38.22
2023-01-10T10:49:06.118Z,37.25
2023-01-10T10:50:17.319Z,35.05
2023-01-10T10:51:23.446Z,41.22
2023-01-10T10:52:28.252Z,38.67
2023-01-10T10:53:39.181Z,44.50
2023-01-10T10:54:42.620Z,44.72
2023-01-10T10:55:48.722Z,42.00
2023-01-10T10:56:55.223Z,41.22
2023-01-10T10:58:01.099Z,39.92
2023-01-10T10:59:13.287Z,42.95
2023-01-10T11:00:19.525Z,42.45
2023-01-10T11:01:26.343Z,38.28
2023-01-10T11:02:31.326Z,42.38
2023-01-10T11:03:47.148Z,42.63
2023-01-10T11:04:58.210Z,40.83
2023-01-10T11:06:02.123Z,41.60
2023-01-10T11:07:05.468Z,42.80
2023-01-10T11:08:10.281Z,35.55
2023-01-10T11:09:15.105Z,40.08
2023-01-10T11:10:45.255Z,40.60
2023-01-10T11:11:52.354Z,42.17
2023-01-10T11:12:56.312Z,41.60
2023-01-10T11:14:00.902Z,39.88
2023-01-10T11:15:11.109Z,45.63
2023-01-10T11:16:26.327Z,46.08
2023-01-10T11:17:47.120Z,44.25
2023-01-10T11:18:55.503Z,46.70
2023-01-10T11:20:08.242Z,46.60
2023-01-10T11:21:14.456Z,41.58
2023-01-10T11:22:37.135Z,46.55
2023-01-10T11:23:43.327Z,41.20
2023-01-10T11:24:52.142Z,43.28
2023-01-10T11:25:55.991Z,51.42
2023-01-10T11:27:00.934Z,40.67
2023-01-10T11:28:13.297Z,43.90
2023-01-10T11:29:18.292Z,45.08
2023-01-10T11:30:30.134Z,44.10
2023-01-10T11:31:34.342Z,43.08
2023-01-10T11:32:40.427Z,39.53
2023-01-10T11:33:50.289Z,36.80
2023-01-10T11:34:55.807Z,37.83
2023-01-10T11:36:00.450Z,37.33
2023-01-10T11:37:05.190Z,38.58
2023-01-10T11:38:16.128Z,37.70
2023-01-10T11:39:18.644Z,41.17
2023-01-10T11:40:25.321Z,40.92
2023-01-10T11:41:34.127Z,42.05
2023-01-10T11:42:36.580Z,44.65
2023-01-10T11:43:47.125Z,42.45
2023-01-10T11:44:52.412Z,46.83
2023-01-10T11:45:56.875Z,40.63
2023-01-10T11:47:03.769Z,43.08
2023-01-10T11:48:11.446Z,44.28
2023-01-10T11:49:27.113Z,46.47
2023-01-10T11:50:31.936Z,41.00
2023-01-10T11:51:45.150Z,47.97
2023-01-10T11:52:49.850Z,45.22
2023-01-10T11:53:57.862Z,43.90
2023-01-10T11:55:01.985Z,41.90
2023-01-10T11:56:11.146Z,41.25
2023-01-10T11:57:17.970Z,45.53
2023-01-10T11:58:21.355Z,39.90
2023-01-10T11:59:24.459Z,39.10
2023-01-10T12:00:33.290Z,46.40
2023-01-10T12:01:47.131Z,39.45
2023-01-10T12:02:52.654Z,43.75
2023-01-10T12:03:56.543Z,35.45
2023-01-10T12:05:01.719Z,40.28
2023-01-10T12:06:13.171Z,39.70
2023-01-10T12:07:19.057Z,39.42
2023-01-10T12:08:29.583Z,39.65
2023-01-10T12:09:37.691Z,41.30
2023-01-10T12:10:41.179Z,43.20
2023-01-10T12:11:59.150Z,39.47
2023-01-10T12:13:09.484Z,34.22
2023-01-10T12:14:21.225Z,36.90
2023-01-10T12:15:26.181Z,30.75
2023-01-10T12:16:37.219Z,42.40
2023-01-10T12:17:47.162Z,38.75
2023-01-10T12:18:59.147Z,37.35
2023-01-10T12:20:03.423Z,36.08
2023-01-10T12:21:06.192Z,36.33
2023-01-10T12:22:17.135Z,38.80
2023-01-10T12:23:28.158Z,39.97
2023-01-10T12:24:34.713Z,39.03
2023-01-10T12:25:39.635Z,31.00
2023-01-10T12:26:50.252Z,31.88
2023-01-10T12:27:54.810Z,36.53
2023-01-10T12:28:59.994Z,37.13
2023-01-10T12:30:06.882Z,38.25
2023-01-10T12:31:19.176Z,37.88
2023-01-10T12:32:24.902Z,35.78
2023-01-10T12:33:30.166Z,36.45
2023-01-10T12:34:37.492Z,37.47
2023-01-10T12:35:49.284Z,41.10
2023-01-10T12:36:58.033Z,36.28
2023-01-10T12:38:03.562Z,40.08
2023-01-10T12:39:14.329Z,40.60
2023-01-10T12:40:19.641Z,36.63
2023-01-10T12:41:46.554Z,41.40
2023-01-10T12:43:12.091Z,39.55
2023-01-10T12:44:17.883Z,38.97
2023-01-10T12:45:26.851Z,40.38
2023-01-10T12:47:04.576Z,37.33
2023-01-10T12:48:08.310Z,38.92
2023-01-10T12:49:15.005Z,37.72
2023-01-10T12:50:22.209Z,41.00
2023-01-10T12:51:26.010Z,35.15
2023-01-10T12:52:52.116Z,45.85
2023-01-10T12:53:57.117Z,47.03
2023-01-10T12:55:00.141Z,39.58
2023-01-10T12:56:07.935Z,42.03
2023-01-10T12:57:18.208Z,45.72
2023-01-10T12:58:29.162Z,40.65
2023-01-10T12:59:38.159Z,43.25
2023-01-10T13:00:48.723Z,39.88
2023-01-10T13:01:56.795Z,42.45
2023-01-10T13:03:08.351Z,44.72
2023-01-10T13:04:14.281Z,42.35
2023-01-10T13:05:20.817Z,52.80
2023-01-10T13:06:27.053Z,54.63
2023-01-10T13:07:33.504Z,52.20
2023-01-10T13:08:44.213Z,45.90
2023-01-10T13:09:46.877Z,44.38
2023-01-10T13:10:51.751Z,48.30
2023-01-10T13:11:58.974Z,42.35
2023-01-10T13:13:04.833Z,43.95
2023-01-10T13:14:19.170Z,49.58
2023-01-10T13:15:24.678Z,48.30
2023-01-10T13:16:35.422Z,55.47
2023-01-10T13:17:47.211Z,56.00
2023-01-10T13:19:04.211Z,52.25
2023-01-10T13:20:27.714Z,50.95
2023-01-10T13:21:31.393Z,63.83
2023-01-10T13:22:55.195Z,61.80
2023-01-10T13:24:00.410Z,60.30
2023-01-10T13:25:10.160Z,64.57
2023-01-10T13:26:14.382Z,59.20
2023-01-10T13:27:20.957Z,53.13
2023-01-10T13:28:25.979Z,59.45
2023-01-10T13:29:32.144Z,63.65
2023-01-10T13:30:44.202Z,62.85
2023-01-10T13:31:49.776Z,59.55
2023-01-10T13:33:01.379Z,62.50
2023-01-10T13:34:07.605Z,62.42
2023-01-10T13:35:12.067Z,57.90
2023-01-10T13:36:27.202Z,55.00
2023-01-10T13:37:36.072Z,44.72
2023-01-10T13:38:41.223Z,52.45
2023-01-10T13:39:46.155Z,52.72
2023-01-10T13:41:00.202Z,56.65
2023-01-10T13:42:46.182Z,53.72
2023-01-10T13:44:02.310Z,51.60
2023-01-10T13:45:16.775Z,50.20
2023-01-10T13:46:38.944Z,50.10
2023-01-10T13:48:07.181Z,55.28
2023-01-10T13:49:29.249Z,50.90
2023-01-10T13:50:51.111Z,59.65
2023-01-10T13:52:13.012Z,67.60
2023-01-10T13:53:38.191Z,74.68
2023-01-10T13:54:57.136Z,61.63
2023-01-10T13:56:00.955Z,57.53
2023-01-10T13:57:24.307Z,49.55
2023-01-10T13:59:10.188Z,52.53
2023-01-10T14:00:40.596Z,56.05
2023-01-10T14:02:03.561Z,55.67
2023-01-10T14:03:07.372Z,56.30
2023-01-10T14:04:26.279Z,55.05
2023-01-10T14:05:30.198Z,49.72
2023-01-10T14:06:40.967Z,51.97
2023-01-10T14:07:46.359Z,55.42
2023-01-10T14:08:50.814Z,54.72
2023-01-10T14:10:09.243Z,58.00
2023-01-10T14:11:13.701Z,62.03
2023-01-10T14:12:22.592Z,49.63
2023-01-10T14:13:26.105Z,55.30
2023-01-10T14:14:29.730Z,59.17
2023-01-10T14:15:45.193Z,73.15
2023-01-10T14:16:50.266Z,81.20
2023-01-10T14:17:57.852Z,81.57
2023-01-10T14:19:00.580Z,102.40
2023-01-10T14:20:07.587Z,75.38
2023-01-10T14:21:17.194Z,67.43
2023-01-10T14:22:40.191Z,67.13
2023-01-10T14:23:52.191Z,61.42
2023-01-10T14:24:55.311Z,66.68
2023-01-10T14:25:59.459Z,63.58
2023-01-10T14:27:10.197Z,68.60
2023-01-10T14:28:19.951Z,78.68
2023-01-10T14:29:22.791Z,71.72
2023-01-10T14:30:29.323Z,76.28
2023-01-10T14:31:33.136Z,75.72